Aérodrome :
LOGIN :

S'inscrire | Disclaimer

   EN    FR    IT 

 










Légende :    VFR   VFR Marginal   IFR   IFR Intensif   IFR Très Intensif
Visi : 
Plafond : 
>= 8 km
>= 3000ft
5 à 8 km
1000 à 3000 ft
1500m à 5 km
500 à 1000 ft
800 à 1500m
200 à 500 ft
< 800m
< 200 ft
Symboles :   Orages  Brouillard  Fortes neiges  Fortes précipitations  Vent > 20 kt
SIGMETs :   Divers  Orages  Givrage  Turbulence  Onde Orograph.  Cendres Volcan.






- Altitude de l'aérodrome : 370 ft


EBBE - Beauvechain AB

DERNIER METAR :
  • 301125Z 28013KT 9999 FEW020 SCT025 07/02 Q1021 BLU BLU

METARs EXPIRÉS :
  • 301055Z 29016KT 9999 FEW020 08/03 Q1021 BLU BLU
  • 301025Z 28015KT 9999 FEW018 07/02 Q1021 BLU BLU
  • 300955Z 27017KT 9999 FEW015 07/03 Q1020 BLU BLU
  • 300925Z 27013KT 9999 FEW015 07/04 Q1020 BLU BLU
  • 300916Z 27013KT 9999 FEW015 07/04 Q1020 BLU BLU
  • 300855Z 26012KT 9999 FEW012 SCT020 06/05 Q1020 WHT WHT BECMG BLU
  • 300844Z 26013KT 9999 FEW012 SCT020 06/05 Q1020 WHT WHT BECMG BLU

TAF TAF EBBE
Valide du 30 à 10h jusqu'au 30 à 19h UTC


300841Z 3010/3019 27015KT 9999 FEW015 SCT025
TEMPO 3009/3016 27015G25KT SCT020



MET'MAP, la Météo Aéronautique d'un coup d'oeil ! - Copyright ORBIFLY Décembre 2007 - Disclaimer

ORBIFLY MET'MAP TEAM :

Programmation & Développement : Alexandra Zaïnal
Sur une idée originale de : Baudouin d'Aumeries
Soutien technique & logistique : Manuel Goepfert
Assistance : Marc-Olivier Méhu




SOURCES & CREDITS :

   NOAA